Time;durP1;ratioP1;P1;durP2;ratioP2;P2;SDS_P1;SDS_P2;PMS_P1;PMS_P2;Temp;Humidity;BMP_temperature;BMP_pressure;BME280_temperature;BME280_humidity;BME280_pressure;Samples;Min_cycle;Max_cycle;Signal;HPM_P1;HPM_P2
2022/08/07 00:01:04;;;;;;;2.78;2.58;;;;;;;12.14;90.06;102532.25;4990636;28;20638;-49
2022/08/07 00:03:29;;;;;;;5.22;3.40;;;;;;;11.94;90.19;102532.63;4990865;28;20552;-47
2022/08/07 00:05:55;;;;;;;3.13;2.83;;;;;;;11.80;90.60;102531.91;4991023;28;20197;-48
2022/08/07 00:08:23;;;;;;;5.95;3.08;;;;;;;11.75;90.98;102526.59;4993270;28;20162;-48
2022/08/07 00:10:50;;;;;;;3.33;2.80;;;;;;;11.86;90.95;102526.44;4993427;28;20598;-48
2022/08/07 00:13:18;;;;;;;3.28;2.78;;;;;;;11.88;90.70;102521.09;4994372;28;20205;-48
2022/08/07 00:15:44;;;;;;;3.33;3.03;;;;;;;11.77;90.65;102523.03;4981704;28;21554;-48
2022/08/07 00:18:09;;;;;;;3.75;3.45;;;;;;;11.59;91.02;102517.03;4975053;28;20210;-47
2022/08/07 00:20:36;;;;;;;5.15;2.90;;;;;;;11.42;91.68;102519.09;4975339;28;20691;-47
2022/08/07 00:23:05;;;;;;;4.00;3.30;;;;;;;11.44;92.40;102511.91;4974779;28;20260;-48
2022/08/07 00:25:30;;;;;;;3.63;2.95;;;;;;;11.36;92.95;102511.13;4975169;28;20174;-47
2022/08/07 00:27:56;;;;;;;3.53;2.90;;;;;;;11.34;93.24;102511.13;4974776;28;20244;-47
2022/08/07 00:30:23;;;;;;;5.20;2.95;;;;;;;11.33;92.89;102510.25;4974940;28;20197;-47
2022/08/07 00:32:49;;;;;;;4.13;3.22;;;;;;;11.22;92.81;102503.28;4974642;28;20693;-47
2022/08/07 00:35:17;;;;;;;3.83;3.33;;;;;;;11.08;92.85;102509.69;4974881;28;20170;-48
2022/08/07 00:37:43;;;;;;;3.95;3.10;;;;;;;10.94;93.46;102509.00;4975065;28;20221;-47
2022/08/07 00:40:09;;;;;;;4.15;3.30;;;;;;;11.00;93.88;102503.56;4973493;28;20683;-50
2022/08/07 00:42:35;;;;;;;3.42;3.13;;;;;;;11.03;94.09;102511.56;4973544;28;20209;-48
2022/08/07 00:45:01;;;;;;;4.28;3.70;;;;;;;10.79;94.04;102503.81;4973143;28;20182;-46
2022/08/07 00:47:26;;;;;;;4.00;2.97;;;;;;;10.93;94.43;102500.06;4974906;28;20182;-47
2022/08/07 00:49:52;;;;;;;3.10;2.70;;;;;;;11.02;94.20;102511.56;4974862;28;20209;-48
2022/08/07 00:52:18;;;;;;;3.63;3.00;;;;;;;10.97;93.77;102508.94;4974359;28;20206;-49
2022/08/07 00:54:43;;;;;;;6.55;3.33;;;;;;;10.87;93.59;102504.63;4973356;28;20178;-49
2022/08/07 00:57:10;;;;;;;4.70;3.40;;;;;;;10.77;93.66;102503.84;4974719;28;20229;-48
2022/08/07 00:59:36;;;;;;;4.57;3.78;;;;;;;10.59;93.76;102501.38;4973457;28;20638;-48
2022/08/07 01:02:07;;;;;;;5.32;3.88;;;;;;;10.54;94.82;102503.22;4973113;28;20210;-48
2022/08/07 01:04:33;;;;;;;4.80;3.60;;;;;;;10.66;95.40;102495.91;4973123;28;20269;-50
2022/08/07 01:06:58;;;;;;;3.42;3.15;;;;;;;10.74;95.46;102501.22;4973373;28;20268;-51
2022/08/07 01:09:25;;;;;;;3.75;3.40;;;;;;;10.80;94.93;102500.22;4974606;28;20174;-51
2022/08/07 01:11:51;;;;;;;3.88;3.47;;;;;;;10.81;94.43;102496.66;4974821;28;20198;-51
2022/08/07 01:14:19;;;;;;;5.78;4.13;;;;;;;10.59;93.90;102496.91;4974002;28;20174;-50
2022/08/07 01:16:45;;;;;;;4.50;3.47;;;;;;;10.47;93.98;102495.25;4972999;28;20290;-50
2022/08/07 01:19:11;;;;;;;5.47;4.18;;;;;;;10.43;94.54;102496.19;4972547;28;20294;-50
2022/08/07 01:21:38;;;;;;;4.47;3.92;;;;;;;10.33;94.66;102491.84;4972981;28;20293;-50
2022/08/07 01:24:05;;;;;;;6.00;4.07;;;;;;;10.23;95.20;102496.38;4972155;28;20281;-52
2022/08/07 01:26:32;;;;;;;5.43;4.18;;;;;;;10.37;95.65;102495.38;4972510;28;20213;-53
2022/08/07 01:28:58;;;;;;;4.43;4.03;;;;;;;10.21;95.45;102491.91;4972729;28;20637;-51
2022/08/07 01:31:30;;;;;;;5.35;4.20;;;;;;;10.19;95.67;102499.06;4973606;28;20220;-51
2022/08/07 01:34:01;;;;;;;4.38;3.95;;;;;;;10.32;95.91;102498.09;4972326;28;20177;-54
2022/08/07 01:36:33;;;;;;;7.22;4.20;;;;;;;10.26;95.89;102493.66;4972365;28;20181;-52
2022/08/07 01:39:01;;;;;;;5.93;4.13;;;;;;;9.97;95.89;102496.63;4972744;28;20243;-54
2022/08/07 01:41:27;;;;;;;5.55;4.20;;;;;;;9.89;96.54;102496.69;4972350;28;20170;-50
2022/08/07 01:43:56;;;;;;;6.38;4.13;;;;;;;9.96;97.13;102493.94;4971949;28;20186;-51
2022/08/07 01:46:22;;;;;;;6.20;3.75;;;;;;;10.10;97.48;102489.34;4972224;28;20681;-53
2022/08/07 01:48:48;;;;;;;6.25;4.38;;;;;;;9.99;97.03;102499.25;4974127;28;20284;-50
2022/08/07 01:51:21;;;;;;;4.85;4.20;;;;;;;10.04;96.92;102490.31;4991605;28;20284;-50
2022/08/07 01:53:49;;;;;;;5.88;4.40;;;;;;;10.16;96.68;102488.41;4991177;28;20186;-52
2022/08/07 01:56:24;;;;;;;6.43;4.03;;;;;;;10.04;96.44;102476.91;4975780;28;20730;-50
2022/08/07 01:58:59;;;;;;;5.53;4.47;;;;;;;10.09;96.64;102488.47;4972293;28;20689;-56
2022/08/07 02:01:30;;;;;;;4.22;3.78;;;;;;;10.08;96.50;102480.47;4972280;28;20213;-52
2022/08/07 02:04:06;;;;;;;5.20;4.18;;;;;;;10.06;96.32;102475.09;4972163;28;20193;-50
2022/08/07 02:06:36;;;;;;;6.20;4.32;;;;;;;10.05;96.27;102486.72;4973447;28;20657;-54
2022/08/07 02:09:08;;;;;;;5.05;4.13;;;;;;;10.06;96.18;102482.25;4973854;28;20166;-53
2022/08/07 02:11:39;;;;;;;4.38;3.92;;;;;;;9.93;95.95;102483.25;4971477;28;20212;-50
2022/08/07 02:14:07;;;;;;;5.07;4.03;;;;;;;9.98;96.03;102482.31;4971252;28;20640;-53
2022/08/07 02:16:37;;;;;;;6.40;4.22;;;;;;;9.87;95.76;102490.44;4971699;28;20178;-52
2022/08/07 02:19:06;;;;;;;4.50;4.10;;;;;;;9.75;96.25;102476.28;4973317;28;20708;-53
2022/08/07 02:21:36;;;;;;;5.13;4.15;;;;;;;9.62;96.83;102483.50;4971545;28;20279;-53
2022/08/07 02:24:04;;;;;;;6.57;4.45;;;;;;;9.62;97.45;102475.47;4984332;28;20181;-52
2022/08/07 02:26:32;;;;;;;8.18;4.32;;;;;;;9.49;97.68;102467.56;4990635;28;20186;-54
2022/08/07 02:28:58;;;;;;;5.50;4.15;;;;;;;9.48;98.24;102471.13;4992246;28;20178;-51
2022/08/07 02:31:26;;;;;;;4.45;4.05;;;;;;;9.50;98.47;102473.78;4990307;28;20668;-52
2022/08/07 02:33:53;;;;;;;5.82;4.68;;;;;;;9.53;98.63;102472.88;4990593;28;20261;-51
2022/08/07 02:36:20;;;;;;;4.43;3.97;;;;;;;9.48;98.98;102463.09;4990776;28;20188;-53
2022/08/07 02:38:46;;;;;;;5.03;4.53;;;;;;;9.45;98.88;102468.47;4991966;28;20197;-53
2022/08/07 02:41:13;;;;;;;5.53;4.60;;;;;;;9.47;99.02;102472.03;4990744;28;20567;-50
2022/08/07 02:43:41;;;;;;;7.25;4.25;;;;;;;9.47;98.82;102468.47;4990476;28;20205;-50
2022/08/07 02:46:09;;;;;;;4.72;4.30;;;;;;;9.37;98.86;102473.00;4990594;28;20204;-51
2022/08/07 02:48:37;;;;;;;7.18;4.40;;;;;;;9.36;99.19;102475.66;4990678;28;20221;-54
2022/08/07 02:51:09;;;;;;;6.95;4.75;;;;;;;9.31;99.25;102473.03;4990096;28;20553;-54
2022/08/07 02:53:37;;;;;;;5.68;4.75;;;;;;;9.16;99.56;102476.72;4990299;28;20205;-52
2022/08/07 02:56:04;;;;;;;6.22;4.65;;;;;;;9.26;99.82;102474.84;4991922;28;20177;-54
2022/08/07 02:58:31;;;;;;;5.65;4.82;;;;;;;9.26;99.65;102466.81;4990570;28;20215;-53
2022/08/07 03:00:58;;;;;;;5.97;4.95;;;;;;;9.24;99.85;102472.19;4990632;28;20613;-53
2022/08/07 03:03:26;;;;;;;7.25;5.53;;;;;;;9.20;99.90;102464.19;4989783;28;20255;-51
2022/08/07 03:05:55;;;;;;;6.93;5.07;;;;;;;9.14;100.00;102457.09;4990439;28;20208;-52
2022/08/07 03:08:21;;;;;;;6.28;5.10;;;;;;;9.14;99.92;102456.19;4990003;28;20178;-54
2022/08/07 03:10:51;;;;;;;5.32;4.57;;;;;;;9.11;99.98;102454.44;4990542;28;20188;-54
2022/08/07 03:13:22;;;;;;;7.90;5.28;;;;;;;9.00;100.00;102458.97;4989928;28;20573;-53
2022/08/07 03:15:51;;;;;;;7.05;4.72;;;;;;;9.00;100.00;102458.97;4990223;28;20562;-52
2022/08/07 03:18:16;;;;;;;8.00;5.82;;;;;;;9.00;100.00;102469.66;4991741;28;20201;-56
2022/08/07 03:20:43;;;;;;;5.88;5.13;;;;;;;9.03;100.00;102462.50;4991015;28;20189;-52
2022/08/07 03:23:09;;;;;;;5.28;4.78;;;;;;;9.23;100.00;102465.06;4991206;28;20216;-51
2022/08/07 03:25:39;;;;;;;7.68;5.82;;;;;;;9.34;100.00;102459.66;4990061;28;20178;-54
2022/08/07 03:28:11;;;;;;;5.55;5.05;;;;;;;9.27;100.00;102463.25;4990223;28;20621;-52
2022/08/07 03:30:38;;;;;;;5.82;5.15;;;;;;;9.14;100.00;102459.78;4989955;28;20177;-53
2022/08/07 03:33:07;;;;;;;7.95;5.80;;;;;;;9.14;100.00;102457.09;4989326;28;20209;-52
2022/08/07 03:35:34;;;;;;;7.20;4.90;;;;;;;9.22;100.00;102463.28;4989854;28;20324;-51
2022/08/07 03:38:05;;;;;;;7.13;4.93;;;;;;;9.25;100.00;102465.94;4991174;28;20176;-53
2022/08/07 03:40:31;;;;;;;5.28;4.57;;;;;;;9.30;100.00;102457.88;4989636;28;20657;-53
2022/08/07 03:42:59;;;;;;;6.53;5.18;;;;;;;9.30;100.00;102462.34;4994319;28;20229;-51
2022/08/07 03:45:28;;;;;;;6.13;4.65;;;;;;;9.32;99.95;102455.22;4991704;28;20196;-50
2022/08/07 03:47:57;;;;;;;6.85;5.32;;;;;;;9.19;99.56;102459.75;4991372;28;20782;-50
2022/08/07 03:50:24;;;;;;;7.07;5.03;;;;;;;9.14;99.89;102465.13;4960550;28;20188;-50
2022/08/07 03:52:57;;;;;;;9.02;4.63;;;;;;;9.22;100.00;102451.69;4976632;28;20198;-54
2022/08/07 03:55:22;;;;;;;7.90;5.88;;;;;;;9.24;100.00;102452.56;4976104;28;20543;-49
2022/08/07 03:57:50;;;;;;;7.25;4.65;;;;;;;9.23;100.00;102448.13;4985630;28;20189;-49
2022/08/07 04:00:17;;;;;;;5.00;4.50;;;;;;;9.25;100.00;102443.66;4976025;28;20707;-51
2022/08/07 04:02:47;;;;;;;6.15;4.90;;;;;;;9.26;100.00;102448.09;4976533;28;20206;-52
2022/08/07 04:05:20;;;;;;;4.80;4.40;;;;;;;9.27;99.86;102452.53;4961060;28;20170;-51
2022/08/07 04:07:49;;;;;;;6.85;4.72;;;;;;;9.32;100.00;102448.06;4976413;28;20190;-49
2022/08/07 04:10:19;;;;;;;5.70;4.85;;;;;;;9.29;99.98;102453.41;4976560;28;20548;-53
2022/08/07 04:12:47;;;;;;;4.85;4.45;;;;;;;9.46;100.00;102450.63;4975558;28;20636;-53
2022/08/07 04:15:15;;;;;;;5.95;5.13;;;;;;;9.36;99.84;102457.84;4976175;28;20181;-47
2022/08/07 04:17:43;;;;;;;7.70;4.88;;;;;;;9.49;99.94;102461.34;4976223;28;20667;-49
2022/08/07 04:20:10;;;;;;;4.93;4.43;;;;;;;9.51;99.98;102463.97;4978141;28;20260;-48
2022/08/07 04:22:37;;;;;;;5.32;4.38;;;;;;;9.57;99.83;102469.28;4975821;28;20209;-47
2022/08/07 04:25:06;;;;;;;6.13;4.97;;;;;;;9.57;99.75;102470.16;4975985;28;20558;-47
2022/08/07 04:27:33;;;;;;;5.32;4.50;;;;;;;9.61;99.77;102466.56;4976161;28;20272;-48
2022/08/07 04:29:59;;;;;;;6.93;4.72;;;;;;;9.58;99.54;102477.31;4976133;28;20182;-48
2022/08/07 04:32:31;;;;;;;5.55;4.80;;;;;;;9.72;99.71;102473.63;4976433;28;20555;-48
2022/08/07 04:34:57;;;;;;;6.47;5.10;;;;;;;9.72;99.57;102468.28;4975914;28;20174;-46
2022/08/07 04:37:23;;;;;;;6.93;4.35;;;;;;;9.83;99.48;102466.41;4976739;28;20180;-47
2022/08/07 04:39:51;;;;;;;6.20;4.85;;;;;;;9.99;99.25;102465.38;4976173;28;20241;-47
2022/08/07 04:42:17;;;;;;;7.05;5.47;;;;;;;10.03;99.02;102467.09;4976426;28;20210;-49
2022/08/07 04:44:43;;;;;;;6.35;5.53;;;;;;;10.20;99.41;102466.03;4976301;28;20316;-48
2022/08/07 04:47:20;;;;;;;7.13;6.43;;;;;;;10.38;100.00;102463.19;4976253;28;20264;-51
2022/08/07 04:50:04;;;;;;;10.50;6.88;;;;;;;10.66;100.00;102458.38;4976401;28;20184;-48
2022/08/07 04:52:53;;;;;;;7.53;6.47;;;;;;;10.79;100.00;102458.25;4976325;28;20217;-47
2022/08/07 04:55:31;;;;;;;8.40;6.65;;;;;;;10.97;100.00;102468.72;4972488;28;20261;-49
2022/08/07 04:58:01;;;;;;;9.05;7.00;;;;;;;11.24;100.00;102469.22;4972924;28;20170;-47
2022/08/07 05:00:44;;;;;;;9.27;6.97;;;;;;;11.62;99.58;102465.09;4973328;28;20264;-47
2022/08/07 05:03:16;;;;;;;7.60;6.82;;;;;;;12.01;98.89;102465.34;4972922;28;20281;-49
2022/08/07 05:05:46;;;;;;;8.82;6.88;;;;;;;12.23;97.48;102461.34;4974570;28;20166;-47
2022/08/07 05:08:47;;;;;;;7.05;6.35;;;;;;;12.43;96.07;102470.84;4973249;28;20208;-49
2022/08/07 05:11:22;;;;;;;6.93;5.90;;;;;;;12.76;94.74;102466.56;4972933;28;20200;-49
2022/08/07 05:14:01;;;;;;;8.02;6.18;;;;;;;12.98;93.25;102470.56;4972907;28;20177;-48
2022/08/07 05:16:30;;;;;;;7.38;5.90;;;;;;;13.32;91.90;102477.91;4972677;28;20209;-49
2022/08/07 05:19:02;;;;;;;9.18;5.68;;;;;;;13.46;90.29;102480.25;4972949;28;20285;-48
2022/08/07 05:21:29;;;;;;;6.55;4.68;;;;;;;13.62;89.29;102479.91;4972478;28;20192;-49
2022/08/07 05:24:02;;;;;;;6.97;5.72;;;;;;;13.81;88.62;102482.09;4972506;28;20186;-47
2022/08/07 05:26:32;;;;;;;9.52;5.10;;;;;;;13.79;87.54;102477.66;4972413;28;20244;-49
2022/08/07 05:29:06;;;;;;;5.63;5.13;;;;;;;13.99;86.62;102469.97;4974101;28;20183;-48
2022/08/07 05:31:37;;;;;;;9.43;5.22;;;;;;;13.96;86.13;102475.44;4972562;28;20194;-48
2022/08/07 05:34:07;;;;;;;6.65;5.25;;;;;;;13.93;86.14;102480.91;4972135;28;20178;-47
2022/08/07 05:36:37;;;;;;;5.57;4.90;;;;;;;13.97;86.25;102487.09;4972843;28;20555;-47
2022/08/07 05:39:07;;;;;;;5.25;4.68;;;;;;;13.81;86.58;102487.47;4979538;28;20205;-47
2022/08/07 05:41:32;;;;;;;5.57;5.05;;;;;;;13.87;86.86;102486.44;4992027;28;20181;-47
2022/08/07 05:43:58;;;;;;;9.57;5.70;;;;;;;14.00;86.47;102485.22;4991406;28;20192;-48
2022/08/07 05:46:24;;;;;;;7.93;4.80;;;;;;;14.32;86.34;102478.09;4991663;28;20260;-49
2022/08/07 05:48:52;;;;;;;7.15;5.15;;;;;;;14.66;85.44;102482.53;4991960;28;20181;-49
2022/08/07 05:51:19;;;;;;;5.38;4.65;;;;;;;14.91;83.87;102474.63;4991741;28;20217;-48
2022/08/07 05:53:45;;;;;;;6.60;5.57;;;;;;;15.25;83.07;102487.97;4991667;28;20320;-49
2022/08/07 05:56:14;;;;;;;6.63;4.93;;;;;;;15.57;81.55;102487.88;4991707;28;20657;-49
2022/08/07 05:58:46;;;;;;;5.50;4.72;;;;;;;15.25;80.52;102482.56;4991653;28;20209;-47
2022/08/07 06:01:14;;;;;;;7.75;4.63;;;;;;;15.03;80.63;102476.06;4991853;28;20189;-48
2022/08/07 06:03:48;;;;;;;7.43;4.80;;;;;;;14.88;81.31;102476.53;4991253;28;20174;-47
2022/08/07 06:06:14;;;;;;;6.18;5.10;;;;;;;14.87;82.61;102478.34;4992886;28;20184;-48
2022/08/07 06:08:40;;;;;;;7.45;4.78;;;;;;;14.94;83.66;102485.31;4991650;28;20200;-46
2022/08/07 06:11:07;;;;;;;5.60;4.50;;;;;;;14.99;83.37;102487.88;4992860;28;20189;-49
2022/08/07 06:13:35;;;;;;;6.55;4.95;;;;;;;14.87;83.23;102480.13;4990774;28;20201;-47
2022/08/07 06:16:03;;;;;;;8.13;5.05;;;;;;;14.84;83.16;102487.38;4991193;28;20177;-47
2022/08/07 06:18:31;;;;;;;5.43;4.93;;;;;;;14.93;83.05;102479.97;4991307;28;20197;-47
2022/08/07 06:20:59;;;;;;;5.20;4.70;;;;;;;14.95;83.27;102489.78;4991043;28;20293;-48
2022/08/07 06:23:25;;;;;;;5.07;4.57;;;;;;;15.03;83.24;102492.25;4990999;28;20197;-49
2022/08/07 06:25:51;;;;;;;6.15;5.13;;;;;;;15.01;83.20;102486.00;4990933;28;20563;-47
2022/08/07 06:28:18;;;;;;;6.20;4.45;;;;;;;15.19;82.95;102480.03;4990935;28;20281;-48
2022/08/07 06:30:43;;;;;;;5.70;4.75;;;;;;;15.20;82.93;102484.53;4992600;28;20244;-49
2022/08/07 06:33:13;;;;;;;4.85;4.45;;;;;;;15.38;82.91;102487.59;4991829;28;20197;-49
2022/08/07 06:35:38;;;;;;;6.65;5.10;;;;;;;15.46;82.78;102482.81;4992806;28;20178;-48
2022/08/07 06:38:05;;;;;;;5.57;4.68;;;;;;;15.41;82.13;102490.16;4991896;28;20173;-45
2022/08/07 06:40:38;;;;;;;6.93;5.55;;;;;;;15.36;82.27;102484.91;4990941;28;20181;-47
2022/08/07 06:43:07;;;;;;;5.28;4.72;;;;;;;15.49;81.55;102485.41;4990442;28;20289;-50
2022/08/07 06:45:45;;;;;;;8.70;5.30;;;;;;;15.49;80.74;102489.94;4990865;28;20622;-47
2022/08/07 06:48:11;;;;;;;6.55;4.57;;;;;;;15.59;80.69;102480.56;4990636;28;20185;-50
2022/08/07 06:50:41;;;;;;;5.47;4.63;;;;;;;15.63;80.82;102490.34;4991596;28;20237;-46
2022/08/07 06:53:09;;;;;;;6.53;4.60;;;;;;;15.45;80.16;102483.75;4990041;28;20203;-48
2022/08/07 06:55:35;;;;;;;5.35;4.47;;;;;;;15.65;79.53;102486.69;4990580;28;20325;-48
2022/08/07 06:58:05;;;;;;;8.60;5.18;;;;;;;15.56;79.86;102484.28;4990577;28;20293;-47
2022/08/07 07:00:38;;;;;;;5.57;4.88;;;;;;;15.45;80.53;102484.63;4990330;28;20227;-48
2022/08/07 07:03:07;;;;;;;5.00;4.60;;;;;;;15.47;80.36;102476.47;4989958;28;20287;-48
2022/08/07 07:05:32;;;;;;;6.35;4.38;;;;;;;15.42;79.91;102479.31;4990243;28;20236;-47
2022/08/07 07:07:59;;;;;;;5.72;4.82;;;;;;;15.60;80.33;102487.75;4992058;28;20203;-47
2022/08/07 07:10:32;;;;;;;5.05;4.55;;;;;;;15.78;79.52;102491.69;4991587;28;20320;-47
2022/08/07 07:13:21;;;;;;;7.53;5.05;;;;;;;16.68;78.29;102479.50;4989698;28;20223;-47
2022/08/07 07:15:53;;;;;;;5.07;4.57;;;;;;;17.31;75.49;102477.09;4991899;28;20249;-46
2022/08/07 07:18:35;;;;;;;7.05;4.90;;;;;;;16.84;74.51;102488.84;4990583;28;20204;-48
2022/08/07 07:21:07;;;;;;;6.03;4.85;;;;;;;16.49;75.06;102479.31;4991239;28;20612;-49
2022/08/07 07:23:33;;;;;;;6.63;5.15;;;;;;;16.31;76.46;102488.06;4983678;28;20540;-46
2022/08/07 07:26:04;;;;;;;6.25;5.53;;;;;;;16.03;77.49;102492.66;4971855;28;20178;-46
2022/08/07 07:28:36;;;;;;;6.50;5.90;;;;;;;16.09;77.98;102485.25;4972189;28;20170;-47
2022/08/07 07:31:11;;;;;;;6.00;5.40;;;;;;;16.12;78.31;102494.16;4971886;28;20174;-47
2022/08/07 07:33:38;;;;;;;5.97;5.43;;;;;;;16.09;78.57;102487.94;4971751;28;20208;-47
2022/08/07 07:36:06;;;;;;;6.40;5.80;;;;;;;16.01;79.38;102497.22;4971602;28;20204;-48
2022/08/07 07:38:33;;;;;;;6.70;5.78;;;;;;;16.00;79.49;102502.66;4971962;28;20238;-47
2022/08/07 07:41:02;;;;;;;7.15;5.60;;;;;;;16.08;79.12;102491.59;4971816;28;20205;-47
2022/08/07 07:43:30;;;;;;;6.50;5.72;;;;;;;16.11;78.73;102491.50;4971757;28;20197;-47
2022/08/07 07:45:55;;;;;;;8.30;5.57;;;;;;;16.06;78.44;102487.13;4971855;28;20182;-48
2022/08/07 07:48:24;;;;;;;5.95;5.38;;;;;;;16.09;77.78;102478.00;4971676;28;20178;-47
2022/08/07 07:50:52;;;;;;;6.07;5.47;;;;;;;16.13;77.80;102481.50;4972134;28;20178;-49
2022/08/07 07:53:21;;;;;;;5.40;5.00;;;;;;;16.16;76.70;102471.47;4971138;28;20227;-49
2022/08/07 07:55:47;;;;;;;6.97;5.22;;;;;;;16.27;76.71;102473.81;4971610;28;20185;-48
2022/08/07 07:58:13;;;;;;;6.15;5.55;;;;;;;16.29;76.03;102477.34;4971968;28;20704;-47
2022/08/07 08:00:41;;;;;;;5.60;5.07;;;;;;;16.47;75.61;102465.84;4971276;28;20718;-47
2022/08/07 08:03:10;;;;;;;6.55;5.68;;;;;;;16.37;75.36;102469.81;4971593;28;20289;-48
2022/08/07 08:05:37;;;;;;;5.65;5.10;;;;;;;16.54;75.59;102457.50;4971571;28;20186;-47
2022/08/07 08:08:04;;;;;;;5.68;5.18;;;;;;;16.69;74.77;102452.38;4971695;28;20178;-47
2022/08/07 08:10:30;;;;;;;5.88;5.30;;;;;;;16.72;75.36;102464.03;4970186;28;20673;-47
2022/08/07 08:12:59;;;;;;;5.28;4.78;;;;;;;16.72;75.24;102469.44;4971487;28;20197;-47
2022/08/07 08:15:28;;;;;;;6.97;5.15;;;;;;;16.65;75.71;102474.22;4971894;28;20181;-47
2022/08/07 08:17:56;;;;;;;6.68;5.32;;;;;;;16.44;75.96;102474.06;4971706;28;20178;-47
2022/08/07 08:20:23;;;;;;;5.53;5.03;;;;;;;16.62;76.28;102469.78;4971596;28;20206;-46
2022/08/07 08:28:25;;;;;;;5.97;5.40;;;;;;;17.11;74.78;102458.94;4970725;28;20280;-46
2022/08/07 08:30:58;;;;;;;5.95;5.45;;;;;;;17.18;74.57;102463.16;4974439;28;20197;-47
2022/08/07 08:33:27;;;;;;;6.07;4.45;;;;;;;17.07;74.14;102462.69;4974787;28;20198;-46
2022/08/07 08:35:54;;;;;;;4.95;4.13;;;;;;;17.29;74.24;102452.78;4974946;28;20603;-47
2022/08/07 08:38:24;;;;;;;5.30;4.75;;;;;;;17.33;74.12;102455.34;4975319;28;20190;-48
2022/08/07 08:41:04;;;;;;;7.40;5.15;;;;;;;17.24;72.97;102446.66;4974694;28;20654;-47
2022/08/07 08:43:29;;;;;;;7.70;5.00;;;;;;;17.18;73.42;102452.31;4974678;28;20209;-48
2022/08/07 08:46:05;;;;;;;7.82;4.75;;;;;;;17.42;73.68;102460.41;4974719;28;20232;-45
2022/08/07 08:48:39;;;;;;;6.50;4.35;;;;;;;18.10;72.32;102443.06;4975009;28;20618;-47
2022/08/07 08:51:16;;;;;;;5.68;4.80;;;;;;;18.46;70.23;102439.66;4974805;28;20239;-48
2022/08/07 08:53:59;;;;;;;4.63;4.22;;;;;;;18.31;69.89;102452.06;4974494;28;20276;-46
2022/08/07 08:56:47;;;;;;;5.93;4.55;;;;;;;18.05;69.60;102438.78;4974840;28;20257;-47
2022/08/07 08:59:43;;;;;;;6.10;4.53;;;;;;;17.81;70.57;102455.13;4966526;28;20191;-44
2022/08/07 09:02:17;;;;;;;5.35;4.80;;;;;;;17.63;70.91;102448.66;4974582;28;20247;-47
2022/08/07 09:05:06;;;;;;;5.72;5.10;;;;;;;17.60;71.63;102454.22;4974440;28;20166;-48
2022/08/07 09:07:59;;;;;;;6.85;4.63;;;;;;;17.51;71.51;102446.47;4988197;28;20255;-48
2022/08/07 09:10:50;;;;;;;5.78;4.80;;;;;;;17.36;72.32;102452.50;4994217;28;20158;-48
2022/08/07 09:13:15;;;;;;;4.78;4.32;;;;;;;17.47;73.18;102447.53;4993885;28;20216;-48
2022/08/07 09:15:56;;;;;;;5.82;4.50;;;;;;;17.42;73.12;102452.28;4992882;28;20260;-48
2022/08/07 09:18:50;;;;;;;6.78;4.43;;;;;;;17.49;72.92;102451.06;4992869;28;20173;-49
2022/08/07 09:21:34;;;;;;;5.68;4.38;;;;;;;17.34;72.95;102448.97;4993662;28;20308;-49
2022/08/07 09:24:31;;;;;;;4.60;4.20;;;;;;;17.22;72.98;102448.53;4982747;28;20216;-49
2022/08/07 09:27:18;;;;;;;5.10;4.13;;;;;;;17.10;73.02;102454.47;4974207;28;20193;-51
2022/08/07 09:29:47;;;;;;;4.78;4.35;;;;;;;17.17;73.32;102452.41;4974560;28;20214;-51
2022/08/07 09:32:24;;;;;;;6.53;4.80;;;;;;;17.22;73.52;102443.13;4974553;28;20241;-50
2022/08/07 09:35:01;;;;;;;5.30;3.90;;;;;;;17.50;72.56;102442.00;4974179;28;20281;-50
2022/08/07 09:37:43;;;;;;;6.38;4.25;;;;;;;17.86;72.57;102442.31;4974416;28;20166;-51
2022/08/07 09:40:25;;;;;;;5.00;4.25;;;;;;;18.03;71.39;102437.97;4973368;28;20210;-48
2022/08/07 09:43:28;;;;;;;6.78;4.43;;;;;;;18.85;67.73;102443.34;4974011;28;20198;-49
2022/08/07 09:46:07;;;;;;;6.78;3.80;;;;;;;19.27;67.20;102423.19;4974114;28;20181;-49
2022/08/07 09:48:54;;;;;;;4.53;3.60;;;;;;;19.25;66.10;102433.25;4974077;28;20155;-47
2022/08/07 09:51:44;;;;;;;6.25;3.90;;;;;;;19.31;66.51;102433.84;4973747;28;20626;-51
2022/08/07 09:54:18;;;;;;;3.97;3.58;;;;;;;19.50;65.69;102427.47;4973328;28;20642;-49
2022/08/07 09:57:33;;;;;;;5.28;3.95;;;;;;;19.21;65.92;102420.78;4973225;28;20165;-52
2022/08/07 10:00:02;;;;;;;4.20;3.80;;;;;;;19.47;65.95;102424.91;4973357;28;20198;-48
2022/08/07 10:03:14;;;;;;;4.22;3.75;;;;;;;19.56;65.37;102427.16;4973084;28;20193;-49
2022/08/07 10:05:55;;;;;;;6.72;3.80;;;;;;;19.38;64.00;102423.53;4972060;28;20249;-47
2022/08/07 10:08:42;;;;;;;4.43;3.60;;;;;;;18.92;65.28;102423.94;4973071;28;20153;-50
2022/08/07 10:11:29;;;;;;;4.53;4.13;;;;;;;19.07;64.76;102413.31;4973231;28;20178;-49
2022/08/07 10:14:29;;;;;;;4.13;3.83;;;;;;;18.90;65.23;102411.41;4972953;28;20208;-50
2022/08/07 10:17:28;;;;;;;4.20;3.65;;;;;;;18.80;66.31;102413.66;4973100;28;20911;-49
2022/08/07 10:20:10;;;;;;;6.30;3.80;;;;;;;19.00;66.03;102406.38;4972549;28;20563;-49
2022/08/07 10:22:58;;;;;;;6.20;3.47;;;;;;;19.11;65.78;102407.66;4971817;28;20225;-49
2022/08/07 10:25:36;;;;;;;5.05;3.85;;;;;;;19.48;64.60;102407.63;4972530;28;20181;-50
2022/08/07 10:28:11;;;;;;;5.97;4.30;;;;;;;19.12;65.30;102408.53;4972844;28;20193;-48
2022/08/07 10:31:13;;;;;;;3.85;3.55;;;;;;;19.22;64.07;102407.13;4972596;28;20585;-48
2022/08/07 10:33:54;;;;;;;4.40;3.45;;;;;;;19.31;64.31;102397.63;4969082;28;20306;-49
2022/08/07 10:36:28;;;;;;;3.33;3.00;;;;;;;19.61;61.43;102380.69;4972497;28;20177;-51
2022/08/07 10:38:53;;;;;;;4.55;2.80;;;;;;;19.42;60.23;102383.50;4972702;28;20204;-49
2022/08/07 10:41:39;;;;;;;6.22;3.03;;;;;;;19.00;60.88;102387.38;4972364;28;20170;-47
2022/08/07 10:44:22;;;;;;;4.82;3.42;;;;;;;19.05;62.10;102382.63;4971167;28;20174;-47
2022/08/07 10:46:57;;;;;;;3.13;2.92;;;;;;;19.25;61.68;102378.91;4972690;28;20208;-49
2022/08/07 10:49:43;;;;;;;3.65;3.15;;;;;;;19.53;61.89;102376.53;4972335;28;20170;-49
2022/08/07 10:52:20;;;;;;;3.53;3.22;;;;;;;20.16;61.44;102377.84;4971675;28;20202;-48
2022/08/07 10:54:58;;;;;;;4.07;3.60;;;;;;;20.24;60.16;102371.97;4972139;28;20166;-49
2022/08/07 10:57:46;;;;;;;4.75;3.75;;;;;;;19.94;60.34;102361.75;4972097;28;20166;-50
2022/08/07 11:00:15;;;;;;;3.90;3.60;;;;;;;19.53;61.53;102371.09;4971824;28;20190;-51
2022/08/07 11:03:13;;;;;;;4.53;3.50;;;;;;;19.17;62.27;102378.41;4971966;28;20201;-52
2022/08/07 11:05:53;;;;;;;3.55;3.30;;;;;;;18.46;63.34;102384.50;4970199;28;20196;-51
2022/08/07 11:08:35;;;;;;;3.92;3.50;;;;;;;18.15;63.99;102377.75;4971857;28;20158;-50
2022/08/07 11:11:12;;;;;;;5.18;3.50;;;;;;;17.69;65.86;102391.50;4970562;28;20170;-51
2022/08/07 11:13:48;;;;;;;3.63;3.33;;;;;;;17.49;67.63;102391.44;4971147;28;20202;-49
2022/08/07 11:16:35;;;;;;;3.65;3.35;;;;;;;17.52;68.07;102383.19;4971923;28;20562;-49
2022/08/07 11:19:39;;;;;;;3.97;3.38;;;;;;;17.52;67.74;102385.03;4971885;28;20217;-48
2022/08/07 11:22:16;;;;;;;3.75;3.13;;;;;;;17.25;68.26;102388.84;4967406;28;20237;-48
2022/08/07 11:25:12;;;;;;;3.05;2.80;;;;;;;17.23;67.88;102381.69;4987778;28;20181;-49
2022/08/07 11:27:47;;;;;;;3.85;3.45;;;;;;;17.38;67.97;102380.19;4990902;28;20255;-51
2022/08/07 11:30:24;;;;;;;3.38;3.17;;;;;;;17.27;68.23;102381.53;4990688;28;20636;-49
2022/08/07 11:32:57;;;;;;;5.53;3.70;;;;;;;17.34;68.08;102383.97;4990919;28;20706;-52
2022/08/07 11:35:26;;;;;;;4.25;3.85;;;;;;;17.43;68.51;102381.75;4990659;28;20157;-51
2022/08/07 11:37:55;;;;;;;4.03;3.72;;;;;;;17.25;69.62;102387.94;4991172;28;20181;-50
2022/08/07 11:40:39;;;;;;;4.25;3.85;;;;;;;17.14;69.98;102382.97;4990802;28;20688;-51
2022/08/07 11:43:10;;;;;;;4.35;3.90;;;;;;;17.20;70.46;102379.13;4990288;28;20203;-51
2022/08/07 11:46:17;;;;;;;5.03;4.53;;;;;;;17.24;70.24;102378.94;4990698;28;20173;-49
2022/08/07 11:48:57;;;;;;;4.78;4.15;;;;;;;17.20;70.22;102377.28;4989512;28;20162;-51
2022/08/07 11:51:35;;;;;;;4.22;3.88;;;;;;;17.32;70.24;102378.63;4990725;28;20664;-51
2022/08/07 11:54:37;;;;;;;4.65;4.18;;;;;;;17.30;70.19;102375.09;4989154;28;20555;-52
2022/08/07 11:57:21;;;;;;;7.00;4.20;;;;;;;17.55;69.83;102371.34;4970101;28;20224;-52